Time;durP1;ratioP1;P1;durP2;ratioP2;P2;SDS_P1;SDS_P2;PMS_P1;PMS_P2;Temp;Humidity;BMP_temperature;BMP_pressure;BME280_temperature;BME280_humidity;BME280_pressure;Samples;Min_cycle;Max_cycle;Signal;HPM_P1;HPM_P2
2022/04/25 00:01:01;;;;;;;12.05;8.38;;;8.80;99.90;;;;;;4998450;28;20488;-69
2022/04/25 00:03:28;;;;;;;14.45;9.43;;;8.80;99.90;;;;;;4999904;28;20117;-70
2022/04/25 00:05:53;;;;;;;17.92;9.27;;;8.90;99.90;;;;;;4991381;28;20480;-70
2022/04/25 00:08:19;;;;;;;12.00;9.20;;;8.90;99.90;;;;;;4995164;28;20073;-70
2022/04/25 00:10:45;;;;;;;15.48;9.30;;;9.00;99.90;;;;;;5008917;28;20473;-69
2022/04/25 00:13:13;;;;;;;15.30;9.63;;;9.00;99.90;;;;;;5011949;28;20061;-70
2022/04/25 00:15:39;;;;;;;12.82;9.65;;;9.00;99.90;;;;;;5011981;28;20077;-70
2022/04/25 00:18:05;;;;;;;13.82;9.57;;;9.00;99.90;;;;;;5011017;28;20100;-70
2022/04/25 00:20:30;;;;;;;14.10;9.95;;;9.00;99.90;;;;;;5010618;28;20046;-70
2022/04/25 00:22:56;;;;;;;14.25;10.05;;;9.00;99.90;;;;;;5010898;28;20050;-70
2022/04/25 00:25:21;;;;;;;16.15;10.57;;;9.00;99.90;;;;;;5010452;28;20061;-70
2022/04/25 00:27:47;;;;;;;14.73;10.55;;;9.00;99.90;;;;;;5010581;28;20052;-71
2022/04/25 00:30:13;;;;;;;15.82;9.90;;;9.00;99.90;;;;;;5009177;28;20694;-72
2022/04/25 00:32:38;;;;;;;17.90;10.05;;;9.10;99.90;;;;;;5025728;28;20049;-72
2022/04/25 00:35:06;;;;;;;16.48;10.15;;;9.10;99.90;;;;;;5000796;28;20507;-71
2022/04/25 00:37:31;;;;;;;15.70;10.68;;;9.10;99.90;;;;;;5015474;28;20042;-72
2022/04/25 00:39:57;;;;;;;17.30;10.98;;;9.00;99.90;;;;;;4990557;28;20503;-72
2022/04/25 00:42:25;;;;;;;15.90;10.80;;;9.10;99.90;;;;;;5004575;28;20131;-72
2022/04/25 00:44:50;;;;;;;19.00;10.52;;;9.10;99.90;;;;;;4995234;28;20038;-71
2022/04/25 00:47:18;;;;;;;16.80;11.10;;;9.10;99.90;;;;;;5010991;28;20057;-71
2022/04/25 00:49:44;;;;;;;13.63;10.93;;;9.00;99.90;;;;;;5010469;28;20199;-71
2022/04/25 00:52:09;;;;;;;14.52;11.25;;;9.10;99.90;;;;;;5012310;28;20049;-71
2022/04/25 00:54:35;;;;;;;15.52;11.30;;;9.10;99.90;;;;;;5017170;28;20506;-72
2022/04/25 00:57:02;;;;;;;18.85;11.82;;;9.10;99.90;;;;;;5011549;28;20033;-72
2022/04/25 00:59:28;;;;;;;18.80;12.52;;;9.10;99.90;;;;;;5010492;28;20060;-72
2022/04/25 01:01:54;;;;;;;19.73;12.50;;;9.10;99.90;;;;;;5010334;28;20060;-72
2022/04/25 01:04:21;;;;;;;15.50;12.23;;;9.10;99.90;;;;;;5010425;28;20038;-72
2022/04/25 01:06:48;;;;;;;16.75;12.30;;;9.10;99.90;;;;;;5003787;28;20038;-71
2022/04/25 01:09:14;;;;;;;17.70;13.15;;;9.00;99.90;;;;;;4995695;28;20103;-72
2022/04/25 01:11:40;;;;;;;18.92;12.13;;;9.00;99.90;;;;;;5016538;28;20129;-72
2022/04/25 01:14:17;;;;;;;21.80;13.35;;;9.00;99.90;;;;;;5013737;28;20136;-72
2022/04/25 01:16:43;;;;;;;19.05;13.45;;;9.00;99.90;;;;;;5014184;28;20045;-72
2022/04/25 01:19:10;;;;;;;24.33;14.20;;;9.00;99.90;;;;;;5014289;28;20069;-72
2022/04/25 01:21:41;;;;;;;19.15;13.73;;;9.00;99.90;;;;;;5013953;28;20037;-73
2022/04/25 01:29:38;;;;;;;17.95;13.80;;;9.00;99.90;;;;;;5006186;28;20046;-72
2022/04/25 01:32:04;;;;;;;22.77;14.30;;;9.00;99.90;;;;;;5001409;28;20427;-72
2022/04/25 01:34:32;;;;;;;23.10;14.35;;;8.90;99.90;;;;;;5001327;28;20039;-72
2022/04/25 01:36:58;;;;;;;20.48;14.35;;;9.00;99.90;;;;;;5005356;28;20047;-72
2022/04/25 01:39:24;;;;;;;20.05;14.57;;;9.00;99.90;;;;;;4993629;28;20074;-73
2022/04/25 01:41:50;;;;;;;18.52;14.35;;;8.90;99.90;;;;;;5006234;28;20516;-73
2022/04/25 01:44:15;;;;;;;21.33;15.43;;;8.90;99.90;;;;;;5003127;28;20456;-73
2022/04/25 01:46:41;;;;;;;22.52;15.48;;;8.80;99.90;;;;;;5005111;28;20042;-73
2022/04/25 01:49:07;;;;;;;21.48;15.55;;;8.80;99.90;;;;;;4993800;28;20430;-73
2022/04/25 01:51:33;;;;;;;25.45;16.58;;;8.80;99.90;;;;;;4994505;28;20046;-73
2022/04/25 01:53:58;;;;;;;22.20;16.27;;;8.70;99.90;;;;;;4993557;28;20073;-73
2022/04/25 01:56:24;;;;;;;23.02;16.48;;;8.70;99.90;;;;;;4994673;28;20497;-73
2022/04/25 01:58:50;;;;;;;21.90;16.60;;;8.60;99.90;;;;;;5008866;28;20492;-73
2022/04/25 02:01:16;;;;;;;22.75;16.90;;;8.70;99.90;;;;;;5017411;28;20560;-73
2022/04/25 02:03:43;;;;;;;23.17;16.38;;;8.60;99.90;;;;;;5013178;28;20515;-73
2022/04/25 02:06:09;;;;;;;22.48;15.95;;;8.60;99.90;;;;;;5007952;28;20088;-73
2022/04/25 02:08:34;;;;;;;23.27;16.70;;;8.60;99.90;;;;;;5014102;28;20045;-73
2022/04/25 02:13:44;;;;;;;22.60;17.33;;;8.50;99.90;;;;;;5012754;28;20037;-73
2022/04/25 02:16:11;;;;;;;22.88;15.95;;;8.60;99.90;;;;;;5012546;28;20496;-73
2022/04/25 02:18:39;;;;;;;21.90;16.73;;;8.50;99.90;;;;;;5011321;28;20061;-73
2022/04/25 02:21:05;;;;;;;24.10;16.52;;;8.50;99.90;;;;;;5012205;28;20048;-73
2022/04/25 02:23:30;;;;;;;22.20;16.27;;;8.50;99.90;;;;;;5008360;28;20492;-72
2022/04/25 02:25:56;;;;;;;24.75;16.70;;;8.50;99.90;;;;;;5012279;28;20681;-72
2022/04/25 02:28:22;;;;;;;24.70;17.02;;;8.50;99.90;;;;;;5004403;28;20492;-73
2022/04/25 02:30:49;;;;;;;22.27;16.38;;;8.50;99.90;;;;;;5013728;28;20046;-72
2022/04/25 02:33:15;;;;;;;23.48;17.58;;;8.50;99.90;;;;;;5014509;28;20099;-72
2022/04/25 02:35:41;;;;;;;23.83;17.35;;;8.50;99.90;;;;;;5003758;28;20125;-72
2022/04/25 02:38:06;;;;;;;26.67;16.60;;;8.50;99.90;;;;;;5006141;28;20500;-72
2022/04/25 02:40:32;;;;;;;19.40;15.80;;;8.50;99.90;;;;;;5012494;28;20408;-72
2022/04/25 02:42:58;;;;;;;24.70;16.95;;;8.40;99.90;;;;;;4978170;28;20046;-73
2022/04/25 02:45:23;;;;;;;25.15;15.77;;;8.40;99.90;;;;;;4995498;28;20042;-72
2022/04/25 02:47:49;;;;;;;24.15;16.50;;;8.40;99.90;;;;;;4995871;28;20631;-72
2022/04/25 02:50:14;;;;;;;25.65;16.92;;;8.40;99.90;;;;;;5002871;28;20030;-73
2022/04/25 02:52:40;;;;;;;23.35;15.98;;;8.40;99.90;;;;;;5004897;28;20064;-73
2022/04/25 02:55:06;;;;;;;25.48;16.10;;;8.40;99.90;;;;;;4991790;28;20047;-73
2022/04/25 02:57:32;;;;;;;18.85;14.52;;;8.30;99.90;;;;;;5009071;28;20404;-73
2022/04/25 02:59:58;;;;;;;23.98;15.80;;;8.30;99.90;;;;;;5001844;28;20047;-73
2022/04/25 03:02:24;;;;;;;22.52;15.05;;;8.30;99.90;;;;;;5003740;28;20046;-72
2022/04/25 03:04:50;;;;;;;23.65;15.15;;;8.30;99.90;;;;;;4997211;28;20544;-72
2022/04/25 03:07:16;;;;;;;22.30;16.02;;;8.30;99.90;;;;;;5011826;28;20412;-72
2022/04/25 03:09:41;;;;;;;23.88;15.25;;;8.30;99.90;;;;;;5010240;28;20038;-73
2022/04/25 03:12:07;;;;;;;23.88;14.48;;;8.30;99.90;;;;;;5000311;28;20064;-73
2022/04/25 03:14:34;;;;;;;22.48;15.40;;;8.30;99.90;;;;;;5010452;28;20404;-73
2022/04/25 03:17:00;;;;;;;22.70;15.07;;;8.30;99.90;;;;;;5013902;28;20407;-72
2022/04/25 03:19:26;;;;;;;23.05;14.93;;;8.30;99.90;;;;;;5010635;28;20480;-73
2022/04/25 03:21:52;;;;;;;20.88;15.30;;;8.30;99.90;;;;;;4992930;28;20132;-73
2022/04/25 03:24:18;;;;;;;22.95;15.57;;;8.30;99.90;;;;;;4995818;28;20057;-73
2022/04/25 03:26:44;;;;;;;20.20;15.05;;;8.30;99.90;;;;;;5011247;28;20014;-73
2022/04/25 03:29:11;;;;;;;20.05;14.20;;;8.30;99.90;;;;;;5010667;28;20136;-73
2022/04/25 03:31:37;;;;;;;20.13;15.27;;;8.30;99.90;;;;;;5000652;28;20034;-73
2022/04/25 03:34:03;;;;;;;20.05;14.25;;;8.20;99.90;;;;;;5008005;28;20057;-74
2022/04/25 03:36:31;;;;;;;20.20;14.10;;;8.20;99.90;;;;;;4992111;28;20077;-74
2022/04/25 03:38:57;;;;;;;21.88;14.70;;;8.30;99.90;;;;;;5010079;28;20548;-73
2022/04/25 03:41:23;;;;;;;21.98;14.80;;;8.20;99.90;;;;;;4999038;28;20717;-73
2022/04/25 03:43:48;;;;;;;21.88;14.45;;;8.30;99.90;;;;;;5013128;28;20049;-73
2022/04/25 03:46:14;;;;;;;21.27;14.38;;;8.20;99.90;;;;;;5006208;28;20042;-73
2022/04/25 03:48:41;;;;;;;25.08;13.88;;;8.20;99.90;;;;;;5004821;28;20046;-73
2022/04/25 03:51:07;;;;;;;21.00;14.10;;;8.20;99.90;;;;;;4992309;28;20497;-74
2022/04/25 03:53:33;;;;;;;23.58;15.20;;;8.20;99.90;;;;;;5000916;28;20038;-73
2022/04/25 03:58:43;;;;;;;20.88;13.80;;;8.20;99.90;;;;;;5001199;28;20054;-73
2022/04/25 04:01:09;;;;;;;24.98;13.88;;;8.20;99.90;;;;;;5011934;28;20407;-73
2022/04/25 04:03:35;;;;;;;20.27;14.05;;;8.10;99.90;;;;;;5023623;28;20133;-73
2022/04/25 04:06:01;;;;;;;24.35;14.05;;;8.10;99.90;;;;;;4994962;28;20034;-73
2022/04/25 04:08:27;;;;;;;23.98;14.80;;;8.10;99.90;;;;;;5010835;28;20056;-73
2022/04/25 04:10:52;;;;;;;21.42;14.05;;;8.10;99.90;;;;;;4994469;28;20046;-73
2022/04/25 04:13:19;;;;;;;19.70;13.18;;;8.10;99.90;;;;;;5000476;28;20054;-73
2022/04/25 04:15:44;;;;;;;22.63;13.63;;;8.10;99.90;;;;;;5009158;28;20049;-73
2022/04/25 04:18:10;;;;;;;21.90;13.73;;;8.10;99.90;;;;;;5019253;28;20045;-73
2022/04/25 04:20:37;;;;;;;23.33;14.23;;;8.10;99.90;;;;;;5010378;28;20100;-73
2022/04/25 04:23:04;;;;;;;21.42;12.98;;;8.00;99.90;;;;;;5010617;28;20042;-72
2022/04/25 04:25:31;;;;;;;18.52;13.55;;;8.10;99.90;;;;;;5008346;28;20118;-73
2022/04/25 04:27:57;;;;;;;24.00;14.10;;;8.10;99.90;;;;;;5008346;28;20052;-74
2022/04/25 04:30:22;;;;;;;23.05;14.50;;;8.10;99.90;;;;;;5008601;28;20048;-73
2022/04/25 04:32:48;;;;;;;24.58;14.18;;;8.10;99.90;;;;;;4992154;28;20064;-73
2022/04/25 04:36:17;;;;;;;27.50;14.02;;;8.10;99.90;;;;;;5006690;28;20404;-73
2022/04/25 04:38:02;;;;;;;25.38;14.73;;;8.10;99.90;;;;;;5003860;28;20045;-73
2022/04/25 04:40:30;;;;;;;21.70;13.68;;;8.10;99.90;;;;;;4999831;28;20038;-73
2022/04/25 04:42:57;;;;;;;20.77;12.80;;;8.10;99.90;;;;;;5007135;28;20038;-73
2022/04/25 04:45:23;;;;;;;21.90;13.23;;;8.10;99.90;;;;;;5011516;28;20052;-73
2022/04/25 04:47:49;;;;;;;23.23;13.50;;;8.10;99.90;;;;;;5014364;28;20052;-73
2022/04/25 04:50:15;;;;;;;19.92;13.05;;;8.10;99.90;;;;;;4983001;28;20049;-73
2022/04/25 04:52:56;;;;;;;24.38;14.20;;;8.10;99.90;;;;;;5002664;28;20043;-74
2022/04/25 04:55:22;;;;;;;21.88;13.30;;;8.10;99.90;;;;;;5000183;28;20129;-73
2022/04/25 04:57:47;;;;;;;23.33;13.20;;;8.20;99.90;;;;;;4995490;28;20121;-73
2022/04/25 05:00:15;;;;;;;20.77;13.40;;;8.20;99.90;;;;;;5004388;28;20084;-73
2022/04/25 05:02:42;;;;;;;21.75;13.32;;;8.20;99.90;;;;;;5001008;28;20378;-73
2022/04/25 05:05:08;;;;;;;19.65;13.02;;;8.20;99.90;;;;;;5007387;28;20042;-73
2022/04/25 05:07:35;;;;;;;20.15;13.05;;;8.30;99.90;;;;;;5013209;28;20037;-73
2022/04/25 05:10:03;;;;;;;22.83;13.55;;;8.30;99.90;;;;;;5015236;28;20046;-73
2022/04/25 05:12:41;;;;;;;20.52;13.15;;;8.40;99.90;;;;;;5015202;28;20404;-74
2022/04/25 05:15:08;;;;;;;18.63;13.35;;;8.40;99.90;;;;;;5014233;28;20065;-73
2022/04/25 05:17:33;;;;;;;17.98;13.00;;;8.40;99.90;;;;;;5013685;28;20057;-73
2022/04/25 05:19:59;;;;;;;17.27;12.63;;;8.40;99.90;;;;;;5013626;28;20046;-73
2022/04/25 05:22:24;;;;;;;20.60;12.73;;;8.40;99.90;;;;;;5013609;28;20085;-73
2022/04/25 05:24:50;;;;;;;20.33;12.25;;;8.40;99.90;;;;;;5020793;28;20045;-73
2022/04/25 05:27:16;;;;;;;20.95;12.80;;;8.50;99.90;;;;;;5008564;28;20049;-73
2022/04/25 05:29:42;;;;;;;18.45;12.90;;;8.50;99.90;;;;;;5008113;28;20045;-73
2022/04/25 05:32:07;;;;;;;22.17;13.40;;;8.50;99.90;;;;;;5004573;28;20034;-73
2022/04/25 05:34:33;;;;;;;19.23;12.50;;;8.50;99.90;;;;;;5004748;28;20038;-73
2022/04/25 05:36:59;;;;;;;22.23;12.40;;;8.50;99.90;;;;;;5004986;28;20046;-72
2022/04/25 05:39:24;;;;;;;19.05;13.10;;;8.50;99.90;;;;;;5000266;28;20042;-72
2022/04/25 05:41:50;;;;;;;18.90;12.60;;;8.50;99.90;;;;;;5004689;28;20038;-73
2022/04/25 05:44:15;;;;;;;21.33;13.02;;;8.50;99.90;;;;;;5004623;28;20057;-73
2022/04/25 05:46:41;;;;;;;17.40;12.60;;;8.40;99.90;;;;;;5007005;28;20034;-73
2022/04/25 05:52:00;;;;;;;19.77;12.80;;;8.40;99.90;;;;;;5004562;28;20050;-72
2022/04/25 05:54:27;;;;;;;21.83;12.27;;;8.40;99.90;;;;;;5007000;28;20038;-73
2022/04/25 05:56:52;;;;;;;16.60;12.15;;;8.40;99.90;;;;;;5014261;28;20050;-73
2022/04/25 05:59:19;;;;;;;19.70;12.02;;;8.40;99.90;;;;;;5001750;28;20404;-73
2022/04/25 06:01:45;;;;;;;17.80;12.68;;;8.40;99.90;;;;;;4998978;28;20040;-73
2022/04/25 06:04:11;;;;;;;19.98;12.05;;;8.40;99.90;;;;;;5012731;28;20097;-73
2022/04/25 06:06:36;;;;;;;17.15;12.27;;;8.50;99.90;;;;;;5012857;28;20121;-74
2022/04/25 06:09:02;;;;;;;17.63;11.90;;;8.50;99.90;;;;;;5002510;28;20503;-73
2022/04/25 06:11:29;;;;;;;15.50;12.52;;;8.50;99.90;;;;;;4992935;28;20390;-73
2022/04/25 06:13:56;;;;;;;18.38;12.00;;;8.60;99.90;;;;;;4993436;28;20045;-73
2022/04/25 06:16:22;;;;;;;18.63;12.30;;;8.60;99.90;;;;;;5018088;28;20120;-72
2022/04/25 06:18:47;;;;;;;19.70;12.82;;;8.70;99.90;;;;;;5012680;28;20041;-73
2022/04/25 06:21:13;;;;;;;16.02;11.98;;;8.70;99.90;;;;;;5012327;28;20518;-73
2022/04/25 06:23:39;;;;;;;17.08;11.45;;;8.80;99.90;;;;;;5011919;28;20042;-73
2022/04/25 06:26:04;;;;;;;17.70;12.10;;;8.80;99.90;;;;;;5000946;28;20543;-74
2022/04/25 06:28:30;;;;;;;15.85;11.23;;;8.80;99.90;;;;;;5007442;28;20112;-73
2022/04/25 06:30:56;;;;;;;19.98;12.23;;;8.90;99.90;;;;;;5003468;28;20400;-73
2022/04/25 06:33:21;;;;;;;18.55;11.55;;;8.90;99.90;;;;;;5007282;28;20718;-73
2022/04/25 06:35:49;;;;;;;18.17;11.65;;;8.90;99.90;;;;;;5003778;28;20563;-73
2022/04/25 06:38:15;;;;;;;23.17;12.13;;;8.90;99.90;;;;;;5004120;28;20065;-73
2022/04/25 06:40:42;;;;;;;17.52;12.32;;;9.00;99.90;;;;;;5004226;28;20107;-73
2022/04/25 06:43:08;;;;;;;15.88;11.70;;;9.00;99.90;;;;;;5002292;28;20052;-73
2022/04/25 06:45:34;;;;;;;16.38;12.00;;;9.00;99.90;;;;;;5002380;28;20046;-73
2022/04/25 06:48:00;;;;;;;23.38;13.10;;;9.00;99.90;;;;;;5004292;28;20386;-73
2022/04/25 06:50:25;;;;;;;20.42;13.15;;;9.00;99.90;;;;;;4984436;28;20095;-73
2022/04/25 06:52:52;;;;;;;15.73;12.38;;;9.00;99.90;;;;;;5003411;28;20046;-73
2022/04/25 06:55:19;;;;;;;17.17;12.63;;;9.10;99.90;;;;;;5000919;28;20405;-73
2022/04/25 06:57:47;;;;;;;18.17;12.80;;;9.10;99.90;;;;;;5000816;28;20038;-73
2022/04/25 07:00:17;;;;;;;20.52;13.75;;;9.10;99.90;;;;;;5000119;28;20053;-73
2022/04/25 07:02:44;;;;;;;20.25;13.50;;;9.10;99.90;;;;;;5001510;28;20050;-72
2022/04/25 07:05:15;;;;;;;17.05;13.18;;;9.10;99.90;;;;;;4986734;28;20562;-73
2022/04/25 07:07:44;;;;;;;18.83;13.32;;;9.10;99.90;;;;;;5003524;28;20483;-73
2022/04/25 07:10:10;;;;;;;18.90;13.07;;;9.10;99.90;;;;;;5002699;28;20038;-73
2022/04/25 07:12:35;;;;;;;19.05;14.00;;;9.00;99.90;;;;;;4987995;28;20643;-73
2022/04/25 07:15:01;;;;;;;17.85;13.82;;;9.00;99.90;;;;;;5001510;28;20068;-73
2022/04/25 07:17:27;;;;;;;19.08;12.68;;;9.00;99.90;;;;;;5006611;28;20056;-73
2022/04/25 07:19:52;;;;;;;19.77;13.50;;;9.00;99.90;;;;;;5011262;28;20060;-73
2022/04/25 07:30:31;;;;;;;19.27;13.27;;;9.00;99.90;;;;;;5006843;28;20057;-73
2022/04/25 07:32:57;;;;;;;19.33;14.13;;;9.00;99.90;;;;;;5002819;28;20041;-73
2022/04/25 07:35:22;;;;;;;21.65;14.38;;;9.00;99.90;;;;;;5000305;28;20486;-73
2022/04/25 07:37:48;;;;;;;20.75;12.85;;;9.00;99.90;;;;;;5012685;28;20042;-73
2022/04/25 07:40:14;;;;;;;18.13;12.88;;;9.00;99.90;;;;;;5010012;28;20058;-73
2022/04/25 07:42:40;;;;;;;19.92;13.05;;;9.00;99.90;;;;;;4990702;28;20049;-72
2022/04/25 07:45:08;;;;;;;17.95;12.20;;;9.00;99.90;;;;;;5001367;28;20046;-72
2022/04/25 07:47:35;;;;;;;16.90;12.57;;;9.00;99.90;;;;;;4985321;28;20501;-73
2022/04/25 07:50:01;;;;;;;15.43;12.20;;;9.00;99.90;;;;;;5011172;28;20455;-73
2022/04/25 07:52:27;;;;;;;19.23;12.45;;;9.00;99.90;;;;;;4966091;28;20547;-73
2022/04/25 07:54:55;;;;;;;18.20;11.57;;;8.90;99.90;;;;;;5012720;28;20048;-73
2022/04/25 07:57:21;;;;;;;16.17;10.43;;;8.90;99.90;;;;;;4995089;28;20563;-73
2022/04/25 07:59:47;;;;;;;16.70;10.35;;;8.90;99.90;;;;;;4997999;28;20050;-73
2022/04/25 08:02:14;;;;;;;14.95;10.52;;;8.80;99.90;;;;;;5012223;28;20046;-73
2022/04/25 08:04:39;;;;;;;16.50;11.15;;;8.80;99.90;;;;;;4995760;28;20087;-73
2022/04/25 08:07:05;;;;;;;17.35;11.23;;;8.80;99.90;;;;;;4995477;28;20046;-73
2022/04/25 08:09:31;;;;;;;17.33;10.93;;;8.80;99.90;;;;;;5012000;28;20444;-73
2022/04/25 08:20:08;;;;;;;13.68;11.55;;;8.80;99.90;;;;;;4992780;28;20046;-73
2022/04/25 08:22:35;;;;;;;18.92;11.68;;;8.70;99.90;;;;;;4991147;28;20044;-73
2022/04/25 08:25:04;;;;;;;14.07;11.35;;;8.70;99.90;;;;;;4997385;28;20400;-73
2022/04/25 08:27:29;;;;;;;16.73;11.73;;;8.70;99.90;;;;;;5009950;28;20034;-74
2022/04/25 08:29:55;;;;;;;17.45;12.13;;;8.80;99.90;;;;;;5009244;28;20060;-73
2022/04/25 08:32:20;;;;;;;17.95;12.07;;;8.80;99.90;;;;;;5019721;28;20414;-74
2022/04/25 08:34:46;;;;;;;17.05;12.85;;;8.80;99.90;;;;;;5012332;28;20049;-73
2022/04/25 08:37:12;;;;;;;16.02;12.45;;;8.80;99.90;;;;;;4998958;28;20190;-74
2022/04/25 08:39:38;;;;;;;17.60;12.52;;;8.80;99.90;;;;;;5010344;28;20057;-73
2022/04/25 08:42:07;;;;;;;17.60;12.00;;;8.80;99.90;;;;;;5010219;28;20053;-73
2022/04/25 08:44:33;;;;;;;20.58;12.77;;;8.80;99.90;;;;;;5010503;28;20076;-74
2022/04/25 08:46:59;;;;;;;18.15;13.07;;;8.80;99.90;;;;;;5010423;28;20389;-74
2022/04/25 08:49:25;;;;;;;21.38;13.32;;;8.80;99.90;;;;;;5014225;28;20042;-74
2022/04/25 08:51:58;;;;;;;18.88;13.60;;;8.80;99.90;;;;;;5011531;28;20045;-73
2022/04/25 08:54:26;;;;;;;;;;;8.90;99.90;;;;;;4978281;28;20042;-74
2022/04/25 08:56:51;;;;;;;19.90;13.88;;;8.90;99.90;;;;;;5010173;28;19968;-74
2022/04/25 08:59:17;;;;;;;21.25;14.38;;;9.00;99.90;;;;;;5010499;28;20054;-74
2022/04/25 09:01:43;;;;;;;22.83;14.98;;;9.00;99.90;;;;;;5011242;28;20038;-74
2022/04/25 09:04:09;;;;;;;19.48;14.38;;;9.10;99.90;;;;;;5010463;28;20038;-73
2022/04/25 09:06:34;;;;;;;22.35;14.07;;;9.20;99.90;;;;;;5023077;28;20046;-74
2022/04/25 09:09:01;;;;;;;19.98;14.57;;;9.20;99.90;;;;;;5010538;28;20121;-74
2022/04/25 09:14:12;;;;;;;23.23;15.48;;;9.30;99.90;;;;;;5010141;28;20134;-73
2022/04/25 09:16:39;;;;;;;20.90;14.68;;;9.40;99.90;;;;;;5010367;28;20051;-74
2022/04/25 09:19:05;;;;;;;18.45;13.63;;;9.40;99.90;;;;;;5010496;28;20061;-74
2022/04/25 09:21:38;;;;;;;18.60;14.25;;;9.50;99.90;;;;;;5010020;28;20073;-74
2022/04/25 09:24:28;;;;;;;18.02;13.50;;;9.60;99.90;;;;;;5007638;28;20042;-74
2022/04/25 09:27:11;;;;;;;17.58;13.85;;;9.70;99.90;;;;;;5004155;28;20038;-74
2022/04/25 09:29:37;;;;;;;;;;;9.80;99.90;;;;;;4998502;28;20101;-74
2022/04/25 09:32:04;;;;;;;17.67;13.48;;;9.90;99.90;;;;;;5010106;28;20367;-74
2022/04/25 09:37:17;;;;;;;15.52;12.82;;;10.10;99.90;;;;;;5004500;28;20497;-74
2022/04/25 09:39:43;;;;;;;15.70;12.68;;;10.10;99.90;;;;;;5010459;28;20125;-74
2022/04/25 09:42:09;;;;;;;16.35;13.60;;;10.20;99.90;;;;;;5003757;28;20121;-74
2022/04/25 09:44:55;;;;;;;14.30;12.80;;;10.30;99.90;;;;;;5010912;28;20049;-74
2022/04/25 09:47:31;;;;;;;15.45;11.93;;;10.30;99.90;;;;;;5013089;28;20037;-74
2022/04/25 09:50:08;;;;;;;14.32;11.93;;;10.30;99.90;;;;;;5014414;28;20038;-74
2022/04/25 09:52:54;;;;;;;14.18;11.20;;;10.30;99.90;;;;;;5014380;28;20060;-74
2022/04/25 09:55:21;;;;;;;14.80;11.15;;;10.30;99.90;;;;;;5006239;28;20790;-74
2022/04/25 09:57:49;;;;;;;12.88;10.95;;;10.30;99.90;;;;;;5024371;28;20042;-74
2022/04/25 10:00:36;;;;;;;15.00;10.90;;;10.20;99.90;;;;;;5013133;28;20132;-73
2022/04/25 10:03:03;;;;;;;13.88;10.77;;;10.20;99.90;;;;;;5013244;28;20052;-74
2022/04/25 10:05:47;;;;;;;13.75;10.25;;;10.10;99.90;;;;;;5012793;28;20041;-73
2022/04/25 10:08:14;;;;;;;14.73;10.52;;;10.10;99.90;;;;;;5014065;28;20053;-74
2022/04/25 10:10:53;;;;;;;11.82;10.07;;;10.10;99.90;;;;;;5012943;28;20507;-74
2022/04/25 10:13:19;;;;;;;11.85;10.45;;;10.30;99.90;;;;;;5015977;28;20603;-74
2022/04/25 10:15:46;;;;;;;10.32;9.10;;;10.30;99.90;;;;;;5010703;28;20038;-73
2022/04/25 10:18:13;;;;;;;10.32;8.45;;;10.30;99.90;;;;;;5011319;28;20492;-74
2022/04/25 10:20:41;;;;;;;11.05;9.00;;;10.30;99.90;;;;;;5009388;28;20485;-74
2022/04/25 10:23:11;;;;;;;14.07;8.95;;;10.30;99.90;;;;;;4993272;28;20817;-74
2022/04/25 10:25:39;;;;;;;13.30;8.68;;;10.20;99.90;;;;;;4997511;28;20034;-73
2022/04/25 10:28:08;;;;;;;11.75;8.82;;;10.30;99.90;;;;;;5011258;28;20408;-73
2022/04/25 10:30:35;;;;;;;11.85;8.27;;;10.20;99.90;;;;;;5006149;28;20488;-74
2022/04/25 10:33:16;;;;;;;19.50;9.48;;;10.20;99.90;;;;;;4993063;28;20038;-73
2022/04/25 10:35:42;;;;;;;16.13;8.95;;;10.10;99.90;;;;;;5012386;28;20049;-74
2022/04/25 10:38:47;;;;;;;13.88;9.35;;;10.10;99.90;;;;;;5012382;28;20538;-74
2022/04/25 10:44:17;;;;;;;13.10;8.55;;;10.10;99.90;;;;;;4992367;28;20763;-74
2022/04/25 10:47:24;;;;;;;13.02;7.78;;;10.20;99.90;;;;;;4992535;28;20481;-74
2022/04/25 10:49:53;;;;;;;11.93;7.57;;;10.30;99.90;;;;;;5003809;28;20093;-72
2022/04/25 10:52:42;;;;;;;12.63;8.00;;;10.40;99.90;;;;;;5010431;28;20033;-74
2022/04/25 10:55:33;;;;;;;8.35;6.88;;;10.50;99.90;;;;;;4999730;28;20489;-72
2022/04/25 10:58:02;;;;;;;11.63;7.65;;;10.80;99.90;;;;;;4997941;28;20050;-74
2022/04/25 11:00:36;;;;;;;10.27;7.55;;;10.90;99.90;;;;;;5010873;28;20501;-74
2022/04/25 11:03:13;;;;;;;11.00;7.40;;;11.10;99.90;;;;;;5010161;28;20172;-73
2022/04/25 11:05:44;;;;;;;10.60;7.13;;;11.10;99.90;;;;;;5022474;28;20065;-74
2022/04/25 11:08:16;;;;;;;12.30;7.05;;;11.20;99.90;;;;;;5011278;28;20459;-74
2022/04/25 11:11:01;;;;;;;15.13;7.32;;;11.20;99.90;;;;;;5012662;28;20373;-74
2022/04/25 11:13:33;;;;;;;10.45;7.50;;;11.30;99.90;;;;;;5011804;28;20033;-74
2022/04/25 11:16:16;;;;;;;14.53;6.93;;;11.30;99.90;;;;;;5011636;28;20046;-74
2022/04/25 11:18:42;;;;;;;11.30;6.97;;;11.40;99.90;;;;;;5011711;28;20046;-74
2022/04/25 11:21:16;;;;;;;10.70;7.07;;;11.50;99.90;;;;;;5013269;28;20053;-74
2022/04/25 11:23:49;;;;;;;8.77;6.97;;;11.50;99.90;;;;;;4999085;28;20397;-74
2022/04/25 11:26:41;;;;;;;;;;;11.50;99.90;;;;;;5006504;28;20091;-74
2022/04/25 11:29:11;;;;;;;9.90;6.90;;;11.60;99.90;;;;;;4999673;28;19925;-74
2022/04/25 11:31:38;;;;;;;9.73;6.70;;;11.60;99.90;;;;;;5011122;28;20045;-74
2022/04/25 11:34:07;;;;;;;11.70;6.97;;;11.80;99.90;;;;;;5011285;28;20129;-74
2022/04/25 11:36:37;;;;;;;10.10;7.22;;;11.90;99.90;;;;;;5007750;28;20042;-74
2022/04/25 11:41:49;;;;;;;11.63;6.95;;;12.10;99.90;;;;;;4991545;28;20479;-74
2022/04/25 11:44:15;;;;;;;12.30;7.13;;;12.20;99.90;;;;;;4992749;28;20446;-74
2022/04/25 11:46:41;;;;;;;11.20;6.82;;;12.50;99.90;;;;;;5017965;28;20046;-74
2022/04/25 11:49:07;;;;;;;11.38;6.82;;;12.80;99.90;;;;;;4992794;28;20146;-74
2022/04/25 11:51:35;;;;;;;8.95;6.25;;;12.80;99.90;;;;;;5016855;28;20037;-74
2022/04/25 11:54:04;;;;;;;7.80;6.13;;;12.90;99.90;;;;;;5005213;28;20042;-74
2022/04/25 11:56:35;;;;;;;10.65;7.00;;;12.90;99.90;;;;;;5004760;28;20554;-74
2022/04/25 11:59:07;;;;;;;8.98;6.60;;;13.00;99.90;;;;;;4991567;28;20374;-74
2022/04/25 12:01:38;;;;;;;8.90;5.90;;;13.00;99.90;;;;;;5017449;28;20050;-74
2022/04/25 12:04:24;;;;;;;6.67;5.87;;;13.00;99.90;;;;;;4995850;28;20066;-74
2022/04/25 12:07:03;;;;;;;9.63;6.15;;;13.00;99.90;;;;;;5005192;28;20096;-74
2022/04/25 12:15:36;;;;;;;8.70;6.43;;;13.50;99.90;;;;;;4970908;28;20112;-74
2022/04/25 12:18:21;;;;;;;12.40;6.10;;;13.80;99.90;;;;;;5007262;28;20053;-74
2022/04/25 12:21:02;;;;;;;8.55;5.55;;;14.00;99.90;;;;;;5035640;28;20407;-74
2022/04/25 12:23:30;;;;;;;8.45;5.72;;;14.30;99.90;;;;;;5002417;28;20061;-74
2022/04/25 12:25:58;;;;;;;8.60;6.30;;;14.30;99.90;;;;;;5002854;28;20116;-74
2022/04/25 12:28:25;;;;;;;9.20;5.82;;;14.30;99.90;;;;;;5001589;28;20050;-74
2022/04/25 12:31:03;;;;;;;10.18;6.30;;;14.30;99.90;;;;;;5005376;28;20384;-74
2022/04/25 12:33:35;;;;;;;8.88;6.47;;;14.20;99.90;;;;;;5003442;28;20038;-74
2022/04/25 12:36:22;;;;;;;10.23;6.60;;;14.20;99.90;;;;;;5001392;28;20064;-74
2022/04/25 12:38:50;;;;;;;8.52;6.03;;;14.20;99.90;;;;;;5002671;28;20038;-74
2022/04/25 12:41:31;;;;;;;7.30;6.18;;;14.10;99.90;;;;;;5001869;28;20621;-74
2022/04/25 12:44:17;;;;;;;9.43;6.47;;;14.10;99.90;;;;;;5000864;28;20467;-74
2022/04/25 12:46:48;;;;;;;10.27;6.40;;;14.10;99.90;;;;;;5005120;28;20481;-74
2022/04/25 12:49:17;;;;;;;8.82;6.07;;;14.30;99.90;;;;;;5003895;28;20099;-74
2022/04/25 12:51:56;;;;;;;8.65;6.70;;;14.40;99.90;;;;;;5000859;28;20103;-73
2022/04/25 12:54:37;;;;;;;10.57;7.05;;;14.50;99.90;;;;;;5004201;28;20388;-74
2022/04/25 12:57:18;;;;;;;10.48;6.78;;;14.70;99.90;;;;;;5027470;28;20042;-74
2022/04/25 12:59:56;;;;;;;9.77;6.82;;;14.70;99.90;;;;;;5029782;28;20566;-74
2022/04/25 13:02:39;;;;;;;9.63;6.53;;;14.70;99.90;;;;;;5031636;28;20488;-74
2022/04/25 13:05:09;;;;;;;8.93;6.75;;;14.70;99.90;;;;;;5015711;28;20492;-73
2022/04/25 13:07:43;;;;;;;9.52;6.43;;;14.60;99.90;;;;;;5000967;28;20039;-74
2022/04/25 13:10:12;;;;;;;14.00;6.88;;;14.40;99.90;;;;;;5006750;28;20488;-73
2022/04/25 13:12:59;;;;;;;12.40;7.25;;;14.30;99.90;;;;;;5003814;28;20042;-74
2022/04/25 13:15:31;;;;;;;9.80;7.13;;;14.10;99.90;;;;;;5003783;28;20050;-74
2022/04/25 13:17:56;;;;;;;9.57;7.20;;;13.90;99.90;;;;;;5003742;28;20041;-74
2022/04/25 13:20:25;;;;;;;12.10;6.97;;;13.70;99.90;;;;;;5012101;28;20511;-74
2022/04/25 13:22:54;;;;;;;8.73;6.93;;;13.60;99.90;;;;;;5009289;28;20365;-73
2022/04/25 13:25:22;;;;;;;9.13;7.57;;;13.50;99.90;;;;;;4996112;28;20038;-74
2022/04/25 13:27:48;;;;;;;16.58;7.65;;;13.40;99.90;;;;;;5013064;28;20114;-74
2022/04/25 13:30:14;;;;;;;10.57;7.85;;;13.40;99.90;;;;;;5000722;28;20050;-74
2022/04/25 13:32:43;;;;;;;8.23;7.03;;;13.40;99.90;;;;;;5011635;28;20587;-74